Time;durP1;ratioP1;P1;durP2;ratioP2;P2;SDS_P1;SDS_P2;PMS_P1;PMS_P2;Temp;Humidity;BMP_temperature;BMP_pressure;BME280_temperature;BME280_humidity;BME280_pressure;Samples;Min_cycle;Max_cycle;Signal;HPM_P1;HPM_P2
2023/06/10 00:00:44;;;;;;;21.38;13.88;;;;;;;;;;5020658;28;20045;-57
2023/06/10 00:03:10;;;;;;;23.65;14.30;;;;;;;;;;5023398;28;20091;-57
2023/06/10 00:05:38;;;;;;;20.70;13.65;;;;;;;;;;5020775;28;20060;-57
2023/06/10 00:08:08;;;;;;;21.38;14.43;;;;;;;;;;5014491;28;20034;-57
2023/06/10 00:10:35;;;;;;;22.58;14.38;;;;;;;;;;5022216;28;20037;-57
2023/06/10 00:13:03;;;;;;;23.20;14.05;;;;;;;;;;5023103;28;20068;-57
2023/06/10 00:15:29;;;;;;;22.60;13.73;;;;;;;;;;5020330;28;20076;-57
2023/06/10 00:17:56;;;;;;;22.35;14.52;;;;;;;;;;5018694;28;20034;-57
2023/06/10 00:20:23;;;;;;;18.90;12.98;;;;;;;;;;5022010;28;20121;-57
2023/06/10 00:22:50;;;;;;;20.73;13.70;;;;;;;;;;5022960;28;20033;-58
2023/06/10 00:25:16;;;;;;;24.13;14.75;;;;;;;;;;5021356;28;20029;-58
2023/06/10 00:27:42;;;;;;;22.38;13.45;;;;;;;;;;5018630;28;20046;-58
2023/06/10 00:30:09;;;;;;;25.73;15.43;;;;;;;;;;5021451;28;20045;-58
2023/06/10 00:32:36;;;;;;;23.45;14.43;;;;;;;;;;5022146;28;20072;-58
2023/06/10 00:35:06;;;;;;;22.80;14.27;;;;;;;;;;5021970;28;20072;-58
2023/06/10 00:37:35;;;;;;;22.17;14.15;;;;;;;;;;5018302;28;20038;-57
2023/06/10 00:40:03;;;;;;;25.10;15.07;;;;;;;;;;5021946;28;20044;-58
2023/06/10 00:42:29;;;;;;;22.75;15.15;;;;;;;;;;5015755;28;20049;-58
2023/06/10 00:44:55;;;;;;;25.60;15.00;;;;;;;;;;5008774;28;20407;-58
2023/06/10 00:47:22;;;;;;;22.10;14.00;;;;;;;;;;5008859;28;20495;-58
2023/06/10 00:49:50;;;;;;;20.08;14.55;;;;;;;;;;5021430;28;20033;-58
2023/06/10 00:52:18;;;;;;;26.52;15.48;;;;;;;;;;5022854;28;20034;-58
2023/06/10 00:54:44;;;;;;;26.83;14.60;;;;;;;;;;5014395;28;20037;-57
2023/06/10 00:57:12;;;;;;;26.00;14.98;;;;;;;;;;5042455;28;20034;-58
2023/06/10 00:59:40;;;;;;;23.15;14.63;;;;;;;;;;5018748;28;20407;-58
2023/06/10 01:02:07;;;;;;;25.90;14.68;;;;;;;;;;5022356;28;20412;-58
2023/06/10 01:04:33;;;;;;;22.45;14.98;;;;;;;;;;5021659;28;20061;-58
2023/06/10 01:07:14;;;;;;;23.90;15.77;;;;;;;;;;5018414;28;20061;-58
2023/06/10 01:10:02;;;;;;;25.73;15.68;;;;;;;;;;5021162;28;20038;-58
2023/06/10 01:12:37;;;;;;;25.95;15.40;;;;;;;;;;5019690;28;20048;-58
2023/06/10 01:15:04;;;;;;;23.90;15.40;;;;;;;;;;5015394;28;20034;-57
2023/06/10 01:17:31;;;;;;;23.95;14.93;;;;;;;;;;5010353;28;20048;-58
2023/06/10 01:19:57;;;;;;;21.17;14.98;;;;;;;;;;5037467;28;20045;-58
2023/06/10 01:22:26;;;;;;;23.65;14.93;;;;;;;;;;5019402;28;20057;-57
2023/06/10 01:24:52;;;;;;;23.83;15.00;;;;;;;;;;5002558;28;20046;-57
2023/06/10 01:27:22;;;;;;;24.30;15.40;;;;;;;;;;5016671;28;20044;-58
2023/06/10 01:29:56;;;;;;;27.98;16.02;;;;;;;;;;5022055;28;20049;-57
2023/06/10 01:32:39;;;;;;;26.45;15.45;;;;;;;;;;5018001;28;20053;-58
2023/06/10 01:35:08;;;;;;;25.52;15.40;;;;;;;;;;5020575;28;20033;-58
2023/06/10 01:37:39;;;;;;;25.17;15.27;;;;;;;;;;5022061;28;20056;-57
2023/06/10 01:40:07;;;;;;;25.38;16.27;;;;;;;;;;5017432;28;20052;-57
2023/06/10 01:42:35;;;;;;;26.13;16.27;;;;;;;;;;5015033;28;20076;-58
2023/06/10 01:45:01;;;;;;;28.58;16.48;;;;;;;;;;5009670;28;20044;-58
2023/06/10 01:47:27;;;;;;;25.90;16.27;;;;;;;;;;5014674;28;20040;-59
2023/06/10 01:49:54;;;;;;;27.08;16.70;;;;;;;;;;5001594;28;20057;-57
2023/06/10 01:52:20;;;;;;;23.98;15.25;;;;;;;;;;5018368;28;21032;-58
2023/06/10 01:54:46;;;;;;;27.10;16.30;;;;;;;;;;5016489;28;20037;-58
2023/06/10 01:57:12;;;;;;;24.38;15.73;;;;;;;;;;5010638;28;20511;-58
2023/06/10 01:59:39;;;;;;;26.40;16.23;;;;;;;;;;5020827;28;20522;-58
2023/06/10 02:02:05;;;;;;;29.45;16.08;;;;;;;;;;5021535;28;20057;-57
2023/06/10 02:04:32;;;;;;;29.42;16.45;;;;;;;;;;5023173;28;20036;-58
2023/06/10 02:07:03;;;;;;;30.33;16.08;;;;;;;;;;5025200;28;20037;-57
2023/06/10 02:09:30;;;;;;;28.58;16.45;;;;;;;;;;5023420;28;20045;-57
2023/06/10 02:11:57;;;;;;;27.13;16.15;;;;;;;;;;5053544;28;20041;-58
2023/06/10 02:14:24;;;;;;;26.52;15.93;;;;;;;;;;5018963;28;20052;-57
2023/06/10 02:16:51;;;;;;;32.08;16.42;;;;;;;;;;5024718;28;20045;-58
2023/06/10 02:19:17;;;;;;;26.63;15.82;;;;;;;;;;5021950;28;20041;-58
2023/06/10 02:21:43;;;;;;;27.50;15.82;;;;;;;;;;5035833;28;20049;-57
2023/06/10 02:24:09;;;;;;;30.05;15.93;;;;;;;;;;5021817;28;20503;-57
2023/06/10 02:26:35;;;;;;;27.63;15.60;;;;;;;;;;5025081;28;20045;-57
2023/06/10 02:29:02;;;;;;;29.38;16.13;;;;;;;;;;5024556;28;20056;-57
2023/06/10 02:31:29;;;;;;;28.88;15.27;;;;;;;;;;5019685;28;20054;-57
2023/06/10 02:33:56;;;;;;;30.15;16.08;;;;;;;;;;5054376;28;20046;-57
2023/06/10 02:36:23;;;;;;;28.60;15.43;;;;;;;;;;5024992;28;20056;-57
2023/06/10 02:38:50;;;;;;;27.98;14.90;;;;;;;;;;5024282;28;20038;-57
2023/06/10 02:41:17;;;;;;;25.73;15.27;;;;;;;;;;5009404;28;20046;-57
2023/06/10 02:43:44;;;;;;;27.48;15.55;;;;;;;;;;5006763;28;20141;-57
2023/06/10 02:46:11;;;;;;;26.23;14.95;;;;;;;;;;5012187;28;20034;-56
2023/06/10 02:48:43;;;;;;;28.30;15.18;;;;;;;;;;5003179;28;20419;-57
2023/06/10 02:51:10;;;;;;;26.13;14.70;;;;;;;;;;5012412;28;20030;-57
2023/06/10 02:53:40;;;;;;;28.42;14.45;;;;;;;;;;5012148;28;20419;-57
2023/06/10 02:56:11;;;;;;;24.92;14.70;;;;;;;;;;5013607;28;20041;-57
2023/06/10 02:58:37;;;;;;;29.95;15.20;;;;;;;;;;5019706;28;20045;-57
2023/06/10 03:01:03;;;;;;;30.88;14.98;;;;;;;;;;5034615;28;20045;-57
2023/06/10 03:03:41;;;;;;;30.40;14.80;;;;;;;;;;5018382;28;20041;-57
2023/06/10 03:06:13;;;;;;;29.83;15.30;;;;;;;;;;5022833;28;20071;-58
2023/06/10 03:08:40;;;;;;;28.90;15.20;;;;;;;;;;5019492;28;20041;-57
2023/06/10 03:11:11;;;;;;;29.95;14.45;;;;;;;;;;5019228;28;20050;-57
2023/06/10 03:13:41;;;;;;;25.98;14.30;;;;;;;;;;5024318;28;20052;-57
2023/06/10 03:16:12;;;;;;;29.55;14.93;;;;;;;;;;5022750;28;20037;-58
2023/06/10 03:18:38;;;;;;;29.98;16.35;;;;;;;;;;5017323;28;20072;-57
2023/06/10 03:21:05;;;;;;;28.67;15.07;;;;;;;;;;5019873;28;20420;-57
2023/06/10 03:23:32;;;;;;;28.05;15.15;;;;;;;;;;5024074;28;20076;-57
2023/06/10 03:26:00;;;;;;;26.27;14.07;;;;;;;;;;5022805;28;20045;-57
2023/06/10 03:28:27;;;;;;;26.25;14.15;;;;;;;;;;5001927;28;20060;-57
2023/06/10 03:30:53;;;;;;;33.47;15.95;;;;;;;;;;5033136;28;20065;-57
2023/06/10 03:33:22;;;;;;;27.58;14.38;;;;;;;;;;5022659;28;20033;-57
2023/06/10 03:35:48;;;;;;;26.80;14.32;;;;;;;;;;5023783;28;20037;-57
2023/06/10 03:38:15;;;;;;;30.40;15.63;;;;;;;;;;5017061;28;20054;-58
2023/06/10 03:40:41;;;;;;;29.45;15.20;;;;;;;;;;5014188;28;20489;-57
2023/06/10 03:43:07;;;;;;;27.48;13.80;;;;;;;;;;5018998;28;20029;-57
2023/06/10 03:45:33;;;;;;;27.77;14.43;;;;;;;;;;5008566;28;20054;-57
2023/06/10 03:48:01;;;;;;;28.58;15.57;;;;;;;;;;5016736;28;20525;-57
2023/06/10 03:50:36;;;;;;;29.08;14.80;;;;;;;;;;5052467;28;20045;-58
2023/06/10 03:53:02;;;;;;;30.40;15.05;;;;;;;;;;5021968;28;20071;-57
2023/06/10 03:55:29;;;;;;;32.25;16.42;;;;;;;;;;5012685;28;20050;-57
2023/06/10 03:57:58;;;;;;;30.75;15.45;;;;;;;;;;5011018;28;20035;-56
2023/06/10 04:00:24;;;;;;;26.55;15.50;;;;;;;;;;5019048;28;20048;-57
2023/06/10 04:02:51;;;;;;;28.92;14.50;;;;;;;;;;5022947;28;20068;-56
2023/06/10 04:05:28;;;;;;;30.38;14.68;;;;;;;;;;5021759;28;20041;-57
2023/06/10 04:07:54;;;;;;;27.48;14.70;;;;;;;;;;5049953;28;20045;-57
2023/06/10 04:10:21;;;;;;;29.67;14.93;;;;;;;;;;5015278;28;20053;-57
2023/06/10 04:12:47;;;;;;;29.40;14.23;;;;;;;;;;5022705;28;20046;-57
2023/06/10 04:15:13;;;;;;;32.00;14.85;;;;;;;;;;5023114;28;20458;-57
2023/06/10 04:17:40;;;;;;;29.50;15.70;;;;;;;;;;5016135;28;20053;-57
2023/06/10 04:20:07;;;;;;;31.60;15.88;;;;;;;;;;5019967;28;20046;-57
2023/06/10 04:22:34;;;;;;;30.23;15.50;;;;;;;;;;5012843;28;20046;-58
2023/06/10 04:25:01;;;;;;;28.75;15.88;;;;;;;;;;5013414;28;20041;-57
2023/06/10 04:27:29;;;;;;;31.52;15.70;;;;;;;;;;5018022;28;20038;-58
2023/06/10 04:29:55;;;;;;;33.47;16.27;;;;;;;;;;5014661;28;20038;-57
2023/06/10 04:32:21;;;;;;;29.98;15.38;;;;;;;;;;5022691;28;20410;-56
2023/06/10 04:34:48;;;;;;;34.42;16.33;;;;;;;;;;5023052;28;20033;-57
2023/06/10 04:37:15;;;;;;;31.35;15.75;;;;;;;;;;5018213;28;20038;-57
2023/06/10 04:39:42;;;;;;;33.10;16.15;;;;;;;;;;5019732;28;20037;-58
2023/06/10 04:42:08;;;;;;;33.08;15.98;;;;;;;;;;5018108;28;20582;-57
2023/06/10 04:44:35;;;;;;;31.33;15.55;;;;;;;;;;5008616;28;20033;-57
2023/06/10 04:47:01;;;;;;;31.75;14.68;;;;;;;;;;5008850;28;20431;-57
2023/06/10 04:49:29;;;;;;;34.00;15.38;;;;;;;;;;5017291;28;20044;-58
2023/06/10 04:51:55;;;;;;;34.47;15.77;;;;;;;;;;5021268;28;20045;-57
2023/06/10 04:54:22;;;;;;;29.98;14.02;;;;;;;;;;5016573;28;20403;-58
2023/06/10 04:56:48;;;;;;;29.90;15.82;;;;;;;;;;5010504;28;20054;-57
2023/06/10 04:59:14;;;;;;;27.20;14.43;;;;;;;;;;5016287;28;20061;-57
2023/06/10 05:01:40;;;;;;;25.60;14.23;;;;;;;;;;5021947;28;20036;-57
2023/06/10 05:04:06;;;;;;;27.45;14.75;;;;;;;;;;5022425;28;20050;-57
2023/06/10 05:06:32;;;;;;;26.50;15.32;;;;;;;;;;5019964;28;20041;-58
2023/06/10 05:08:58;;;;;;;34.50;17.23;;;;;;;;;;5013789;28;20415;-58
2023/06/10 05:11:25;;;;;;;31.17;16.40;;;;;;;;;;5021435;28;20061;-58
2023/06/10 05:13:51;;;;;;;24.85;14.27;;;;;;;;;;5022337;28;20419;-58
2023/06/10 05:16:17;;;;;;;23.38;14.40;;;;;;;;;;5020833;28;20060;-58
2023/06/10 05:18:43;;;;;;;25.17;14.70;;;;;;;;;;5015997;28;20046;-59
2023/06/10 05:21:10;;;;;;;23.13;13.52;;;;;;;;;;5019898;28;20049;-58
2023/06/10 05:23:36;;;;;;;22.58;14.00;;;;;;;;;;5020541;28;20049;-58
2023/06/10 05:26:02;;;;;;;21.67;13.13;;;;;;;;;;5022257;28;20049;-59
2023/06/10 05:28:35;;;;;;;21.80;13.32;;;;;;;;;;5017806;28;20400;-59
2023/06/10 05:31:01;;;;;;;21.63;14.50;;;;;;;;;;5020120;28;20042;-59
2023/06/10 05:33:27;;;;;;;19.95;13.27;;;;;;;;;;5025805;28;20045;-58
2023/06/10 05:35:53;;;;;;;19.85;13.25;;;;;;;;;;5026333;28;20056;-59
2023/06/10 05:38:20;;;;;;;19.90;13.23;;;;;;;;;;5013140;28;20030;-59
2023/06/10 05:40:46;;;;;;;19.52;12.80;;;;;;;;;;5023426;28;20042;-59
2023/06/10 05:43:12;;;;;;;17.60;13.18;;;;;;;;;;5020257;28;20038;-59
2023/06/10 05:45:53;;;;;;;19.30;12.93;;;;;;;;;;5012563;28;20042;-59
2023/06/10 05:48:25;;;;;;;17.70;11.85;;;;;;;;;;5018399;28;20053;-59
2023/06/10 05:50:51;;;;;;;19.00;12.57;;;;;;;;;;5025696;28;20033;-59
2023/06/10 05:53:18;;;;;;;15.93;11.90;;;;;;;;;;5024023;28;20045;-59
2023/06/10 05:55:45;;;;;;;15.52;11.57;;;;;;;;;;5015481;28;20040;-59
2023/06/10 05:58:12;;;;;;;16.15;11.77;;;;;;;;;;5014979;28;20038;-59
2023/06/10 06:00:39;;;;;;;14.85;10.95;;;;;;;;;;5005265;28;20037;-59
2023/06/10 06:03:09;;;;;;;15.02;11.50;;;;;;;;;;5025882;28;20041;-58
2023/06/10 06:05:37;;;;;;;15.63;11.20;;;;;;;;;;5022833;28;20040;-59
2023/06/10 06:08:07;;;;;;;14.40;10.60;;;;;;;;;;5022164;28;20415;-59
2023/06/10 06:10:34;;;;;;;13.10;10.13;;;;;;;;;;5015439;28;20033;-59
2023/06/10 06:13:00;;;;;;;14.25;10.18;;;;;;;;;;5025783;28;20049;-59
2023/06/10 06:15:27;;;;;;;14.30;10.23;;;;;;;;;;5022304;28;20522;-59
2023/06/10 06:17:53;;;;;;;12.32;9.95;;;;;;;;;;5020856;28;20041;-59
2023/06/10 06:20:20;;;;;;;12.52;10.05;;;;;;;;;;5024547;28;20044;-59
2023/06/10 06:22:46;;;;;;;11.30;9.43;;;;;;;;;;5025120;28;20053;-59
2023/06/10 06:25:12;;;;;;;12.32;10.25;;;;;;;;;;5022483;28;20053;-59
2023/06/10 06:27:39;;;;;;;12.77;10.65;;;;;;;;;;5016629;28;20065;-59
2023/06/10 06:30:05;;;;;;;16.65;11.20;;;;;;;;;;5023771;28;20041;-59
2023/06/10 06:32:32;;;;;;;13.57;10.32;;;;;;;;;;5024877;28;20043;-59
2023/06/10 06:34:58;;;;;;;13.25;10.23;;;;;;;;;;5023772;28;20051;-60
2023/06/10 06:37:25;;;;;;;12.38;10.88;;;;;;;;;;5020814;28;20058;-59
2023/06/10 06:39:58;;;;;;;13.38;11.05;;;;;;;;;;5017966;28;20040;-59
2023/06/10 06:42:25;;;;;;;15.02;10.63;;;;;;;;;;5018385;28;20042;-59
2023/06/10 06:45:15;;;;;;;14.30;10.75;;;;;;;;;;5009361;28;20037;-59
2023/06/10 06:47:42;;;;;;;13.30;10.70;;;;;;;;;;5014923;28;20046;-59
2023/06/10 06:50:09;;;;;;;14.00;10.50;;;;;;;;;;5024429;28;20044;-59
2023/06/10 06:52:35;;;;;;;12.80;10.27;;;;;;;;;;5017661;28;20048;-59
2023/06/10 06:55:02;;;;;;;13.60;10.60;;;;;;;;;;5013103;28;20483;-58
2023/06/10 06:57:28;;;;;;;12.73;10.55;;;;;;;;;;5015396;28;20060;-58
2023/06/10 06:59:54;;;;;;;14.32;10.40;;;;;;;;;;5024441;28;20048;-58
2023/06/10 07:02:21;;;;;;;12.57;10.25;;;;;;;;;;5024108;28;20045;-58
2023/06/10 07:04:49;;;;;;;13.02;10.48;;;;;;;;;;5019928;28;20057;-57
2023/06/10 07:07:16;;;;;;;12.82;10.73;;;;;;;;;;5020289;28;20037;-57
2023/06/10 07:09:42;;;;;;;16.88;11.25;;;;;;;;;;5023960;28;20049;-59
2023/06/10 07:12:09;;;;;;;15.88;11.98;;;;;;;;;;5024434;28;20048;-59
2023/06/10 07:14:35;;;;;;;13.70;11.05;;;;;;;;;;5002511;28;20392;-59
2023/06/10 07:17:01;;;;;;;12.10;10.00;;;;;;;;;;5020602;28;20053;-59
2023/06/10 07:19:27;;;;;;;16.23;10.48;;;;;;;;;;5023454;28;20032;-59
2023/06/10 07:21:54;;;;;;;13.00;9.93;;;;;;;;;;5024272;28;20067;-58
2023/06/10 07:24:20;;;;;;;14.48;9.95;;;;;;;;;;5018842;28;20049;-58
2023/06/10 07:26:47;;;;;;;12.68;10.02;;;;;;;;;;5020434;28;20372;-59
2023/06/10 07:29:13;;;;;;;13.95;10.05;;;;;;;;;;5023251;28;20050;-59
2023/06/10 07:31:41;;;;;;;12.15;9.98;;;;;;;;;;5023129;28;20076;-59
2023/06/10 07:34:07;;;;;;;16.23;9.60;;;;;;;;;;5020662;28;20044;-59
2023/06/10 07:36:34;;;;;;;14.38;10.27;;;;;;;;;;5020037;28;20040;-59
2023/06/10 07:39:00;;;;;;;13.40;9.75;;;;;;;;;;5022695;28;20519;-58
2023/06/10 07:41:26;;;;;;;12.43;9.50;;;;;;;;;;5023557;28;20412;-59
2023/06/10 07:43:55;;;;;;;12.60;9.57;;;;;;;;;;5011953;28;20052;-59
2023/06/10 07:46:23;;;;;;;14.13;9.85;;;;;;;;;;5006138;28;20045;-59
2023/06/10 07:48:49;;;;;;;11.80;9.50;;;;;;;;;;5022730;28;20037;-59
2023/06/10 07:51:19;;;;;;;11.38;9.27;;;;;;;;;;5023530;28;20037;-59
2023/06/10 07:53:45;;;;;;;13.40;9.10;;;;;;;;;;5019281;28;20042;-59
2023/06/10 07:56:11;;;;;;;13.95;10.57;;;;;;;;;;5013523;28;20029;-59
2023/06/10 07:58:37;;;;;;;11.10;9.38;;;;;;;;;;5016691;28;20045;-59
2023/06/10 08:01:03;;;;;;;11.15;9.50;;;;;;;;;;5022751;28;20050;-59
2023/06/10 08:03:29;;;;;;;13.07;9.90;;;;;;;;;;5021806;28;20041;-60
2023/06/10 08:05:56;;;;;;;12.27;8.82;;;;;;;;;;5020265;28;20050;-59
2023/06/10 08:08:22;;;;;;;9.60;7.75;;;;;;;;;;5017917;28;20053;-59
2023/06/10 08:10:49;;;;;;;11.15;8.00;;;;;;;;;;5023593;28;20053;-59
2023/06/10 08:13:16;;;;;;;9.32;7.60;;;;;;;;;;5022431;28;20041;-59
2023/06/10 08:15:42;;;;;;;10.07;7.93;;;;;;;;;;5017982;28;20072;-59
2023/06/10 08:18:08;;;;;;;10.52;7.95;;;;;;;;;;5021271;28;20060;-60
2023/06/10 08:20:35;;;;;;;10.23;7.85;;;;;;;;;;5022848;28;20531;-59
2023/06/10 08:23:01;;;;;;;9.30;7.45;;;;;;;;;;5023075;28;20054;-59
2023/06/10 08:25:27;;;;;;;12.23;8.35;;;;;;;;;;5019441;28;20781;-59
2023/06/10 08:27:56;;;;;;;9.25;7.07;;;;;;;;;;5018847;28;20045;-59
2023/06/10 08:30:22;;;;;;;10.57;8.00;;;;;;;;;;5010756;28;20048;-59
2023/06/10 08:32:49;;;;;;;10.88;6.90;;;;;;;;;;5022795;28;20034;-59
2023/06/10 08:35:15;;;;;;;9.73;7.80;;;;;;;;;;5018555;28;20049;-59
2023/06/10 08:37:41;;;;;;;10.05;6.53;;;;;;;;;;5019305;28;20065;-60
2023/06/10 08:40:08;;;;;;;6.95;6.25;;;;;;;;;;5022365;28;20041;-59
2023/06/10 08:42:40;;;;;;;8.68;6.57;;;;;;;;;;5014948;28;20534;-59
2023/06/10 08:45:07;;;;;;;8.82;6.85;;;;;;;;;;5008775;28;20524;-58
2023/06/10 08:47:36;;;;;;;8.50;6.57;;;;;;;;;;5012103;28;20049;-59
2023/06/10 08:50:04;;;;;;;8.65;6.65;;;;;;;;;;5022512;28;20406;-59
2023/06/10 08:52:36;;;;;;;8.20;6.18;;;;;;;;;;5021157;28;20049;-58
2023/06/10 08:55:07;;;;;;;8.90;6.70;;;;;;;;;;5012084;28;20033;-59
2023/06/10 08:57:35;;;;;;;8.68;6.43;;;;;;;;;;5013576;28;20498;-58
2023/06/10 09:00:02;;;;;;;7.43;6.40;;;;;;;;;;5022445;28;20037;-59
2023/06/10 09:02:30;;;;;;;8.73;6.75;;;;;;;;;;5020780;28;20337;-59
2023/06/10 09:04:57;;;;;;;7.40;6.20;;;;;;;;;;5019824;28;20061;-59
2023/06/10 09:07:23;;;;;;;7.72;6.57;;;;;;;;;;5022844;28;20060;-60
2023/06/10 09:09:53;;;;;;;7.63;6.32;;;;;;;;;;5025270;28;20085;-59
2023/06/10 09:12:19;;;;;;;7.93;6.32;;;;;;;;;;5023242;28;20038;-59
2023/06/10 09:14:45;;;;;;;7.47;6.28;;;;;;;;;;5021670;28;20037;-59
2023/06/10 09:17:12;;;;;;;8.68;6.28;;;;;;;;;;5023452;28;20045;-59
2023/06/10 09:19:39;;;;;;;8.40;6.82;;;;;;;;;;5025422;28;20403;-59
2023/06/10 09:22:06;;;;;;;8.20;6.80;;;;;;;;;;5021399;28;20026;-60
2023/06/10 09:24:32;;;;;;;8.02;6.43;;;;;;;;;;5020904;28;20076;-59
2023/06/10 09:27:07;;;;;;;9.15;6.90;;;;;;;;;;5018657;28;20061;-59
2023/06/10 09:29:47;;;;;;;8.32;6.32;;;;;;;;;;5016057;28;20044;-59
2023/06/10 09:32:14;;;;;;;8.00;6.30;;;;;;;;;;5018151;28;20053;-59
2023/06/10 09:34:41;;;;;;;7.50;6.55;;;;;;;;;;5022929;28;20415;-58
2023/06/10 09:37:11;;;;;;;9.15;6.75;;;;;;;;;;5015928;28;20037;-59
2023/06/10 09:39:38;;;;;;;7.80;7.00;;;;;;;;;;5020466;28;20061;-59
2023/06/10 09:42:17;;;;;;;8.45;6.72;;;;;;;;;;5019020;28;20614;-59
2023/06/10 09:44:49;;;;;;;7.63;6.82;;;;;;;;;;5010825;28;20041;-60
2023/06/10 09:47:22;;;;;;;8.25;6.68;;;;;;;;;;5017883;28;20063;-59
2023/06/10 09:49:50;;;;;;;7.63;6.15;;;;;;;;;;5015899;28;20041;-59
2023/06/10 09:52:27;;;;;;;8.18;7.03;;;;;;;;;;5022696;28;20079;-59
2023/06/10 09:54:58;;;;;;;8.80;7.53;;;;;;;;;;5016240;28;20052;-59
2023/06/10 09:57:25;;;;;;;10.88;7.38;;;;;;;;;;5015282;28;20038;-59
2023/06/10 09:59:55;;;;;;;9.30;7.38;;;;;;;;;;5019318;28;20496;-59
2023/06/10 10:02:21;;;;;;;11.20;7.13;;;;;;;;;;5020498;28;20411;-60
2023/06/10 10:04:47;;;;;;;8.82;6.88;;;;;;;;;;5024276;28;20036;-59
2023/06/10 10:07:14;;;;;;;8.90;7.35;;;;;;;;;;5021233;28;20415;-59
2023/06/10 10:09:41;;;;;;;10.98;7.57;;;;;;;;;;5012460;28;20061;-60
2023/06/10 10:12:12;;;;;;;9.65;7.00;;;;;;;;;;5023355;28;20034;-59
2023/06/10 10:14:45;;;;;;;10.40;7.22;;;;;;;;;;5022681;28;20057;-60
2023/06/10 10:17:14;;;;;;;12.77;7.90;;;;;;;;;;5015462;28;20484;-60
2023/06/10 10:19:50;;;;;;;11.70;8.15;;;;;;;;;;5020741;28;20038;-59
2023/06/10 10:22:26;;;;;;;12.48;8.32;;;;;;;;;;5011306;28;20404;-59
2023/06/10 10:24:57;;;;;;;16.52;9.40;;;;;;;;;;5018382;28;20381;-59
2023/06/10 10:27:39;;;;;;;10.32;7.80;;;;;;;;;;5018862;28;20044;-59
2023/06/10 10:30:10;;;;;;;12.18;8.23;;;;;;;;;;5003373;28;20044;-60
2023/06/10 10:32:55;;;;;;;9.57;7.80;;;;;;;;;;5005346;28;20061;-59
2023/06/10 10:35:23;;;;;;;9.32;8.20;;;;;;;;;;5009917;28;20061;-59
2023/06/10 10:37:52;;;;;;;11.02;7.35;;;;;;;;;;5013137;28;20042;-59
2023/06/10 10:40:21;;;;;;;8.55;7.10;;;;;;;;;;5016687;28;20049;-59
2023/06/10 10:42:48;;;;;;;;;;;;;;;;;;5014346;28;20045;-59
2023/06/10 10:45:15;;;;;;;8.00;7.00;;;;;;;;;;5011001;28;19917;-59
2023/06/10 10:47:44;;;;;;;10.32;7.93;;;;;;;;;;5012596;28;20086;-59
2023/06/10 10:50:16;;;;;;;8.30;7.45;;;;;;;;;;5020646;28;20048;-59
2023/06/10 10:52:54;;;;;;;9.98;8.00;;;;;;;;;;5011785;28;20127;-59
2023/06/10 10:55:21;;;;;;;9.50;7.68;;;;;;;;;;5014218;28;20388;-58
2023/06/10 10:58:04;;;;;;;11.25;7.95;;;;;;;;;;5015144;28;20033;-59
2023/06/10 11:00:38;;;;;;;8.40;7.50;;;;;;;;;;5016698;28;20503;-59
2023/06/10 11:03:07;;;;;;;9.50;8.00;;;;;;;;;;5011501;28;20041;-58
2023/06/10 11:05:48;;;;;;;9.50;8.50;;;;;;;;;;5014767;28;20042;-59
2023/06/10 11:08:41;;;;;;;9.10;7.55;;;;;;;;;;5014816;28;20045;-59
2023/06/10 11:11:28;;;;;;;9.60;8.20;;;;;;;;;;5009859;28;20046;-59
2023/06/10 11:14:01;;;;;;;10.23;7.80;;;;;;;;;;5018827;28;20040;-59
2023/06/10 11:16:28;;;;;;;9.27;8.10;;;;;;;;;;5013936;28;20040;-59
2023/06/10 11:18:55;;;;;;;9.68;8.32;;;;;;;;;;5003330;28;20030;-59
2023/06/10 11:21:25;;;;;;;9.60;8.02;;;;;;;;;;5016175;28;20037;-58
2023/06/10 11:23:51;;;;;;;10.65;8.15;;;;;;;;;;5012982;28;20399;-59
2023/06/10 11:26:26;;;;;;;10.95;8.07;;;;;;;;;;5018731;28;20029;-60
2023/06/10 11:28:52;;;;;;;10.82;8.25;;;;;;;;;;5009191;28;20469;-60
2023/06/10 11:31:29;;;;;;;9.57;8.18;;;;;;;;;;5009517;28;20683;-60
2023/06/10 11:33:57;;;;;;;10.20;7.93;;;;;;;;;;5017645;28;20041;-59
2023/06/10 11:36:28;;;;;;;9.32;8.25;;;;;;;;;;5007912;28;20045;-60
2023/06/10 11:39:03;;;;;;;9.05;7.28;;;;;;;;;;5009969;28;20044;-59
2023/06/10 11:41:30;;;;;;;9.60;7.90;;;;;;;;;;5016039;28;20384;-61
2023/06/10 11:44:04;;;;;;;10.18;8.57;;;;;;;;;;5009644;28;20049;-58
2023/06/10 11:46:31;;;;;;;8.73;7.80;;;;;;;;;;5010882;28;20034;-60
2023/06/10 11:48:59;;;;;;;10.35;7.93;;;;;;;;;;5022403;28;20054;-60
2023/06/10 11:51:27;;;;;;;9.25;8.18;;;;;;;;;;5004911;28;20030;-60
2023/06/10 11:53:54;;;;;;;10.13;8.23;;;;;;;;;;5012859;28;20034;-60
2023/06/10 11:56:25;;;;;;;9.73;8.13;;;;;;;;;;5021459;28;20056;-60
2023/06/10 11:59:05;;;;;;;10.95;8.10;;;;;;;;;;5016311;28;20056;-60
2023/06/10 12:01:33;;;;;;;9.27;7.65;;;;;;;;;;5017052;28;20496;-60
2023/06/10 12:04:07;;;;;;;10.50;8.73;;;;;;;;;;5013010;28;20042;-60
2023/06/10 12:06:46;;;;;;;8.48;7.50;;;;;;;;;;5015216;28;20045;-60
2023/06/10 12:09:14;;;;;;;9.35;8.32;;;;;;;;;;5018290;28;20403;-60
2023/06/10 12:11:40;;;;;;;8.55;7.40;;;;;;;;;;5011682;28;20038;-60
2023/06/10 12:14:06;;;;;;;8.68;7.78;;;;;;;;;;5021291;28;20435;-60
2023/06/10 12:16:33;;;;;;;8.55;7.68;;;;;;;;;;5022582;28;20053;-60
2023/06/10 12:19:04;;;;;;;10.98;7.60;;;;;;;;;;5022598;28;20045;-60
2023/06/10 12:21:31;;;;;;;8.40;7.50;;;;;;;;;;5008122;28;20050;-60
2023/06/10 12:24:07;;;;;;;11.45;7.63;;;;;;;;;;5009753;28;20029;-61
2023/06/10 12:26:47;;;;;;;9.07;7.93;;;;;;;;;;5014951;28;20045;-60
2023/06/10 12:29:24;;;;;;;27.58;8.77;;;;;;;;;;5018503;28;20033;-60
2023/06/10 12:32:05;;;;;;;11.40;8.35;;;;;;;;;;5020976;28;20034;-60
2023/06/10 12:34:35;;;;;;;8.98;7.35;;;;;;;;;;5023241;28;20572;-60
2023/06/10 12:37:03;;;;;;;9.70;8.27;;;;;;;;;;5019712;28;20049;-59
2023/06/10 12:39:31;;;;;;;9.57;7.72;;;;;;;;;;5018061;28;20479;-60
2023/06/10 12:41:57;;;;;;;10.35;8.23;;;;;;;;;;5020443;28;20065;-60
2023/06/10 12:44:34;;;;;;;10.35;7.93;;;;;;;;;;5009933;28;20044;-60
2023/06/10 12:47:01;;;;;;;8.32;6.45;;;;;;;;;;4993496;28;20042;-60
2023/06/10 12:49:27;;;;;;;8.32;7.45;;;;;;;;;;5017938;28;20056;-60
2023/06/10 12:51:54;;;;;;;8.82;7.47;;;;;;;;;;5022701;28;20060;-61
2023/06/10 12:54:20;;;;;;;8.57;6.97;;;;;;;;;;5022558;28;20040;-60
2023/06/10 12:56:46;;;;;;;9.25;7.57;;;;;;;;;;5018297;28;20535;-62
2023/06/10 12:59:12;;;;;;;9.90;6.60;;;;;;;;;;5018390;28;20403;-60
2023/06/10 13:01:39;;;;;;;10.25;7.72;;;;;;;;;;5022012;28;20033;-60
2023/06/10 13:04:08;;;;;;;9.63;7.40;;;;;;;;;;5022281;28;20511;-60
2023/06/10 13:06:37;;;;;;;8.40;6.47;;;;;;;;;;5018372;28;20411;-61
2023/06/10 13:09:03;;;;;;;7.88;6.22;;;;;;;;;;5015708;28;20042;-60
2023/06/10 13:11:29;;;;;;;9.15;7.03;;;;;;;;;;5022014;28;20041;-60
2023/06/10 13:13:55;;;;;;;8.95;6.65;;;;;;;;;;5022393;28;20407;-59
2023/06/10 13:16:21;;;;;;;7.10;6.22;;;;;;;;;;5018706;28;20049;-59
2023/06/10 13:18:47;;;;;;;7.30;6.60;;;;;;;;;;5018177;28;20054;-60
2023/06/10 13:21:13;;;;;;;7.90;7.10;;;;;;;;;;5054277;28;20037;-59
2023/06/10 13:23:40;;;;;;;9.18;6.82;;;;;;;;;;5009792;28;20034;-60
2023/06/10 13:26:06;;;;;;;8.43;7.10;;;;;;;;;;5008150;28;20503;-59
2023/06/10 13:28:32;;;;;;;9.32;7.18;;;;;;;;;;5014980;28;20515;-61
2023/06/10 13:30:58;;;;;;;9.55;7.00;;;;;;;;;;5021097;28;20430;-60
2023/06/10 13:33:24;;;;;;;10.02;7.05;;;;;;;;;;5022119;28;20034;-60
2023/06/10 13:35:50;;;;;;;7.95;7.15;;;;;;;;;;5021607;28;20037;-59
2023/06/10 13:38:16;;;;;;;8.70;7.18;;;;;;;;;;5015372;28;20054;-60
2023/06/10 13:40:42;;;;;;;9.93;7.68;;;;;;;;;;5021362;28;20046;-60
2023/06/10 13:43:09;;;;;;;9.30;7.30;;;;;;;;;;5016963;28;20045;-60
2023/06/10 13:45:35;;;;;;;10.15;7.55;;;;;;;;;;5009896;28;20046;-60
2023/06/10 13:48:04;;;;;;;10.68;7.50;;;;;;;;;;5019419;28;20549;-60
2023/06/10 13:50:30;;;;;;;9.32;7.55;;;;;;;;;;5020103;28;20523;-60
2023/06/10 13:52:56;;;;;;;10.18;7.00;;;;;;;;;;5024003;28;20060;-60
2023/06/10 13:55:24;;;;;;;8.77;7.18;;;;;;;;;;5022971;28;20045;-60
2023/06/10 13:57:50;;;;;;;7.95;6.78;;;;;;;;;;5021460;28;20046;-60
2023/06/10 14:00:17;;;;;;;8.15;7.00;;;;;;;;;;5021669;28;20535;-60
2023/06/10 14:02:44;;;;;;;9.43;7.32;;;;;;;;;;5057457;28;20045;-60
2023/06/10 14:05:10;;;;;;;12.05;7.45;;;;;;;;;;5025746;28;20041;-59
2023/06/10 14:07:37;;;;;;;8.70;7.20;;;;;;;;;;5020217;28;20050;-60
2023/06/10 14:10:04;;;;;;;10.00;6.88;;;;;;;;;;5022305;28;20038;-60
2023/06/10 14:12:30;;;;;;;13.40;7.43;;;;;;;;;;5025758;28;20045;-60
2023/06/10 14:14:56;;;;;;;9.10;7.00;;;;;;;;;;5025572;28;20380;-60
2023/06/10 14:17:23;;;;;;;8.98;7.30;;;;;;;;;;5021694;28;20044;-60
2023/06/10 14:19:49;;;;;;;8.77;7.32;;;;;;;;;;5022026;28;20034;-60
2023/06/10 14:22:15;;;;;;;7.70;6.63;;;;;;;;;;5025490;28;20044;-60
2023/06/10 14:24:41;;;;;;;11.00;7.95;;;;;;;;;;5017545;28;20042;-60
2023/06/10 14:27:08;;;;;;;7.65;6.93;;;;;;;;;;5009996;28;20454;-60
2023/06/10 14:29:35;;;;;;;11.57;7.80;;;;;;;;;;5012267;28;20038;-60
2023/06/10 14:32:01;;;;;;;8.65;7.60;;;;;;;;;;5025675;28;20088;-58
2023/06/10 14:34:29;;;;;;;9.38;7.93;;;;;;;;;;5025251;28;20044;-60